This is the latest recevied weather packets stored in our database for station/object 4S6DRJ-13. If no packets are shown the sender has not sent any weather packets the latest 10 day(s).
| Time | Temp. | Humidity | Pressure | Rain* | Wind** | Luminosity | Snow |
|---|---|---|---|---|---|---|---|
| 1787628868 | 28.89° C | 82% | 1011.7 hPa | 0 mm | 1.79 m/s, 330° | 531 W/m² | - |
| 1787628807 | 28.89° C | 82% | 1011.4 hPa | 0 mm | 1.34 m/s, 282° | 715 W/m² | - |
| 1787628746 | 28.33° C | 82% | 1011.6 hPa | 0 mm | 1.79 m/s, 221° | 736 W/m² | - |
| 1787628685 | 28.33° C | 83% | 1011.5 hPa | 0 mm | 1.34 m/s, 239° | 710 W/m² | - |
| 1787628624 | 28.33° C | 83% | 1011.7 hPa | 0 mm | 1.79 m/s, 243° | 728 W/m² | - |
| 1787628563 | 28.33° C | 84% | 1011.5 hPa | 0 mm | 1.34 m/s, 192° | 762 W/m² | - |
| 1787628502 | 28.33° C | 84% | 1011.5 hPa | 0 mm | 0.89 m/s, 170° | 774 W/m² | - |
| 1787628441 | 28.33° C | 85% | 1011.6 hPa | 0 mm | 0 m/s | 316 W/m² | - |
| 1787628380 | 28.33° C | 85% | 1011.6 hPa | 0 mm | 0.89 m/s, 208° | 647 W/m² | - |
| 1787628319 | 27.78° C | 86% | 1011.8 hPa | 0 mm | 0 m/s | 766 W/m² | - |
| 1787628258 | 27.78° C | 85% | 1011.7 hPa | 0 mm | 0.89 m/s, 283° | 710 W/m² | - |
| 1787628197 | 27.78° C | 86% | 1011.7 hPa | 0 mm | 0.89 m/s, 163° | 668 W/m² | - |
| 1787628137 | 27.78° C | 87% | 1011.7 hPa | 0 mm | 0.45 m/s, 147° | 666 W/m² | - |
| 1787628075 | 27.78° C | 87% | 1011.7 hPa | 0 mm | 1.34 m/s, 177° | 620 W/m² | - |
| 1787628014 | 27.78° C | 88% | 1011.7 hPa | 0 mm | 0.89 m/s, 179° | 683 W/m² | - |
| 1787627953 | 27.78° C | 88% | 1011.6 hPa | 0 mm | 0 m/s | 661 W/m² | - |
| 1787627892 | 27.78° C | 88% | 1011.7 hPa | 0 mm | 0.89 m/s, 279° | 660 W/m² | - |
| 1787627831 | 27.78° C | 89% | 1011.8 hPa | 0 mm | 0.45 m/s, 255° | 643 W/m² | - |
| 1787627770 | 27.78° C | 90% | 1011.6 hPa | 0 mm | 0.45 m/s, 260° | 670 W/m² | - |
| 1787627709 | 27.78° C | 89% | 1011.9 hPa | 0 mm | 0.89 m/s, 239° | 672 W/m² | - |
| 1787627648 | 27.78° C | 90% | 1011.7 hPa | 0 mm | 0.89 m/s, 219° | 683 W/m² | - |
| 1787627587 | 27.22° C | 91% | 1011.7 hPa | 0 mm | 0 m/s | 687 W/m² | - |
| 1787627526 | 27.22° C | 91% | 1011.7 hPa | 0 mm | 0 m/s | 667 W/m² | - |
| 1787627465 | 27.22° C | 91% | 1011.7 hPa | 0 mm | 0 m/s | 654 W/m² | - |
| 1787627404 | 27.22° C | 91% | 1011.8 hPa | 0 mm | 0.89 m/s, 283° | 346 W/m² | - |
* Rain latest hour (hover to see other rain measurements)
** Current wind speed in m/s (hover to see current wind gust speed)